Rochester, NY (14602)

2:42 AM EDT on May 01, 2017 (GMT -0400)
South Wedge | | Change Station

Elev 525 ft 43.14 °N, 77.61 °W | Updated 10 seconds ago

Overcast
Overcast
44.2 °F
Feels Like 44 °F
N
1.0
Wind Variable Wind from SE

Today
High -- | Low -- °F
--% Chance of Precip.
Yesterday
High -- | Low -- °F
Precip. -- in
Pressure 29.88 in
Visibility 10.0 miles
Clouds Few 300 ft
Few 8000 ft
Overcast 18000 ft
Windchill 44 °F
Dew Point 42 °F
Humidity 91%
Rainfall 0.00 in
Snow Depth Not available.
6:03 AM 8:12 PM
Waxing Crescent, 30% visible
METAR KROC 010554Z COR VRB03KT 10SM FEW003 FEW080 OVC180 07/06 A2986 RMK AO2 LTG DSNT N RAE0457 SLP117 OCNL LTGICCGCC DSNT NE CB DSNT NE P0000 60003 T00670061 10078 20061 58015
Pressure 29.88 in
Visibility 10.0 miles
Clouds Few 300 ft
Few 8000 ft
Overcast 18000 ft
Windchill 44 °F
Dew Point 42 °F
Humidity 91%
Rainfall 0.00 in
Snow Depth Not available.
6:03 AM 8:12 PM
Waxing Crescent, 30% visible
METAR KROC 010554Z COR VRB03KT 10SM FEW003 FEW080 OVC180 07/06 A2986 RMK AO2 LTG DSNT N RAE0457 SLP117 OCNL LTGICCGCC DSNT NE CB DSNT NE P0000 60003 T00670061 10078 20061 58015

Get Severe Weather Alerts

Thanks for signing up!

Be on the lookout for a verification email in your inbox.

You'll start receiving the daily forecast at 8 AM.

×

10-Day Weather Forecast

Almanac

Astronomy

May. 01, 2017 Rise Set
Actual Time
Civil Twilight
Nautical Twilight
Astronomical Twilight
Moon
Length of Visible Light
Length of Day
Tomorrow will be .
, % of the Moon is Illuminated

Today's Extremes

State Highs State Lows

Community

WunderPhotos

WunderBlog® & News

Nearby

Air Quality

  Air Quality AQ Index Pollutant
Not available.

Snow Depth

Station Depth Elevation

Earthquake Activity

City Distance Mag. Time & Date
Minimum magnitude displayed is 2.5.

Coastal Water Temperatures

Place Temperature

Stations

Nearby Weather Stations

Station Location Temp. Windchill Dew Point Humidity Wind Precip. Elev Updated Type
                   

Watches & Warnings

There are currently no watches in effect.